Overview Statistics Trail Chart Weather Telemetry Raw packets
 

This is the latest recevied weather packets stored in our database for station/object HA2SKA-1. If no packets are shown the sender has not sent any weather packets the latest 10 day(s).

<< 35 36 37 38 >>
Time Temp. Humidity Pressure Rain* Wind** Luminosity Snow
1787824212 33.33° C 46% 1019.7 hPa - - - -
1787823312 32.22° C 47% 1020 hPa - - - -
1787822412 32.22° C 47% 1020 hPa - - - -
1787821512 32.22° C 47% 1020 hPa - - - -
1787820612 32.22° C 48% 1020.1 hPa - - - -
1787819711 31.67° C 48% 1020.2 hPa - - - -
1787818811 31.67° C 50% 1020.3 hPa - - - -
1787817911 31.11° C 49% 1020.2 hPa - - - -
1787817011 31.11° C 50% 1020.4 hPa - - - -
1787816111 30.56° C 51% 1020.3 hPa - - - -
1787815211 30° C 53% 1020.5 hPa - - - -
1787814311 28.89° C 55% 1020.3 hPa - - - -
1787813411 28.33° C 57% 1020.5 hPa - - - -
1787812511 27.78° C 61% 1020.3 hPa - - - -
1787811611 26.11° C 66% 1020.2 hPa - - - -
1787810710 26.11° C 65% 1020.4 hPa - - - -
1787809810 25° C 69% 1020.2 hPa - - - -
1787808910 25° C 70% 1020.2 hPa - - - -
1787808010 23.89° C 75% 1020.1 hPa - - - -
1787807110 24.44° C 71% 1020 hPa - - - -
1787806210 24.44° C 71% 1020.1 hPa - - - -
1787805310 24.44° C 70% 1020 hPa - - - -
1787804410 24.44° C 74% 1019.9 hPa - - - -

* Rain since midnight (hover to see other rain measurements)
** Current wind speed in m/s (hover to see current wind gust speed)